»·PEaware :: GSA620 KJFK-CYYZ

GSA620 :: KJFK-CYYZ

FLIGHT INFORMATION

Flight Status: Arrived
Operator:
Global Sim Alliance
More flights by this operator :: More flights under this callsign
Pilot: Nigam P. (15980)
Aircraft: BEECH AIRCRAFT SUPER KING AIR 350
(B350)
More flights by this aircraft type
Origin: KJFK Kennedy Intl
United States
Destination: CYYZ Toronto/Pearson Intl
Canada
More flights between these airports :: More routes between these airports
Route: GAYEL Q818 WOZEE LINNG8
File this flight plan on PilotEdge
Remarks: https; / / www.twitch.tv / confl1ct10n
Altitude:
(Current/Filed)
26,000ft
Speed:
(Current/Filed)
300kts
Departed: 25-Dec-17 01:34 PM
Arrived: 25-Dec-17 03:27 PM
Distance/Time
Traveled:
319nm/1:52
Distance/Time
To Go:
Arrived

Flight Plot

Page will automatically refresh every two minutes.

Flight plan parsing failed; only flown route is shown


Map Options




Map Legend


Flown Route
Filed Route
Departure Airport
Arrival Airport
Navaid (VOR, NDB)
Fix

Horizontal Profiles

Position Reports

Time Latitude Longitude Heading Altitude Ground
Speed
25-Dec-17 13:39 40.768094 -73.874478 322 5754ft 190kts
25-Dec-17 13:40 40.815152 -73.909527 321 7546ft 195kts
25-Dec-17 13:41 40.862583 -73.945002 320 9336ft 195kts
25-Dec-17 13:42 40.909474 -73.980130 318 11125ft 192kts
25-Dec-17 13:43 40.955392 -74.014628 316 12948ft 188kts
25-Dec-17 13:44 40.999915 -74.048175 314 14740ft 183kts
25-Dec-17 13:45 41.043834 -74.081305 312 16564ft 175kts
25-Dec-17 13:46 41.084973 -74.112366 311 18329ft 168kts
25-Dec-17 13:47 41.123946 -74.141904 311 20090ft 161kts
25-Dec-17 13:48 41.163599 -74.171991 312 21925ft 158kts
25-Dec-17 13:49 41.200785 -74.200160 312 23721ft 150kts
25-Dec-17 13:50 41.239357 -74.229682 305 25461ft 166kts
25-Dec-17 13:51 41.282574 -74.262932 308 26004ft 195kts
25-Dec-17 13:52 41.332005 -74.300372 310 25995ft 210kts
25-Dec-17 13:53 41.383370 -74.339315 310 25997ft 213kts
25-Dec-17 13:54 41.419938 -74.390029 291 25999ft 186kts
25-Dec-17 13:55 41.446569 -74.449168 289 26002ft 185kts
25-Dec-17 13:56 41.472507 -74.509025 289 26003ft 185kts
25-Dec-17 13:57 41.498381 -74.568888 289 25979ft 183kts
25-Dec-17 13:58 41.523217 -74.626255 288 25974ft 169kts
25-Dec-17 13:59 41.547030 -74.681853 289 25983ft 178kts
25-Dec-17 14:00 41.571560 -74.738764 289 26271ft 171kts
25-Dec-17 14:01 41.593342 -74.789551 289 27795ft 146kts
25-Dec-17 14:02 41.615431 -74.841467 290 27975ft 172kts
25-Dec-17 14:03 41.639922 -74.898627 290 27974ft 180kts
25-Dec-17 14:04 41.664961 -74.957245 291 27976ft 182kts
25-Dec-17 14:05 41.689618 -75.015184 292 27982ft 183kts
25-Dec-17 14:06 41.715353 -75.075729 292 27990ft 185kts
25-Dec-17 14:07 41.740972 -75.136132 292 27993ft 185kts
25-Dec-17 14:08 41.766452 -75.196352 292 27991ft 185kts
25-Dec-17 14:09 41.791787 -75.256362 291 27992ft 185kts
25-Dec-17 14:10 41.817197 -75.316670 291 27991ft 185kts
25-Dec-17 14:11 41.842497 -75.376838 291 27991ft 185kts
25-Dec-17 14:12 41.867805 -75.437152 291 27986ft 185kts
25-Dec-17 14:13 41.893187 -75.497766 291 27978ft 186kts
25-Dec-17 14:14 41.918322 -75.557916 291 27977ft 186kts
25-Dec-17 14:15 41.943736 -75.618854 291 27981ft 186kts
25-Dec-17 14:16 41.969037 -75.679619 291 27982ft 186kts
25-Dec-17 14:17 41.994239 -75.740294 291 27973ft 186kts
25-Dec-17 14:18 42.019567 -75.801399 291 27963ft 187kts
25-Dec-17 14:19 42.044810 -75.862425 291 27963ft 186kts
25-Dec-17 14:20 42.069981 -75.923409 291 27962ft 186kts
25-Dec-17 14:21 42.095122 -75.984446 291 27960ft 186kts
25-Dec-17 14:22 42.120112 -76.045247 291 27958ft 186kts
25-Dec-17 14:23 42.145281 -76.106622 291 27960ft 186kts
25-Dec-17 14:24 42.167774 -76.169023 288 27961ft 184kts
25-Dec-17 14:25 42.188249 -76.232095 288 27976ft 184kts
25-Dec-17 14:26 42.208568 -76.295347 288 27988ft 184kts
25-Dec-17 14:27 42.228924 -76.358934 288 27987ft 184kts
25-Dec-17 14:28 42.249167 -76.422334 288 27998ft 184kts
25-Dec-17 14:29 42.269380 -76.485794 288 28006ft 184kts
25-Dec-17 14:30 42.289650 -76.549580 288 28002ft 184kts
25-Dec-17 14:31 42.309814 -76.613184 287 28001ft 184kts
25-Dec-17 14:32 42.330006 -76.677031 287 28013ft 184kts
25-Dec-17 14:33 42.350131 -76.740822 287 28016ft 185kts
25-Dec-17 14:34 42.370245 -76.804720 287 28020ft 185kts
25-Dec-17 14:35 42.387070 -76.858304 287 28024ft 185kts
25-Dec-17 14:36 42.407209 -76.922584 287 28030ft 186kts
25-Dec-17 14:37 42.427366 -76.987083 287 28040ft 186kts
25-Dec-17 14:38 42.450831 -77.062349 287 28053ft 185kts
25-Dec-17 14:39 42.467460 -77.115834 287 28057ft 185kts
25-Dec-17 14:40 42.490836 -77.191241 287 28057ft 186kts
25-Dec-17 14:41 42.507485 -77.245076 287 28058ft 186kts
25-Dec-17 14:42 42.527421 -77.309681 287 28059ft 186kts
25-Dec-17 14:43 42.547432 -77.374661 286 28060ft 187kts
25-Dec-17 14:44 42.567463 -77.439932 286 28060ft 188kts
25-Dec-17 14:45 42.587609 -77.505705 286 28060ft 188kts
25-Dec-17 14:46 42.607478 -77.570741 286 28061ft 188kts
25-Dec-17 14:47 42.627668 -77.637004 286 28062ft 188kts
25-Dec-17 14:48 42.647646 -77.702745 286 28062ft 188kts
25-Dec-17 14:49 42.667043 -77.768765 285 28062ft 187kts
25-Dec-17 14:50 42.685476 -77.834329 285 28062ft 187kts
25-Dec-17 14:51 42.703984 -77.900573 285 28062ft 187kts
25-Dec-17 14:52 42.722646 -77.967566 285 28062ft 188kts
25-Dec-17 14:53 42.741117 -78.034078 285 28062ft 189kts
25-Dec-17 14:54 42.759837 -78.101657 284 28063ft 191kts
25-Dec-17 14:55 42.778519 -78.169290 285 28063ft 191kts
25-Dec-17 14:56 42.797275 -78.237356 284 28062ft 190kts
25-Dec-17 14:57 42.815858 -78.304975 284 28062ft 191kts
25-Dec-17 14:58 42.834379 -78.372613 284 28063ft 193kts
25-Dec-17 14:59 42.853236 -78.441637 284 28062ft 193kts
25-Dec-17 15:00 42.872100 -78.510875 284 28062ft 193kts
25-Dec-17 15:01 42.890565 -78.578845 284 28063ft 193kts
25-Dec-17 15:02 42.909650 -78.649456 283 27566ft 204kts
25-Dec-17 15:03 42.929493 -78.721558 286 26671ft 208kts
25-Dec-17 15:04 42.964781 -78.789510 296 25054ft 225kts
25-Dec-17 15:05 43.004525 -78.855783 296 23438ft 223kts
25-Dec-17 15:06 43.044227 -78.921819 296 21838ft 225kts
25-Dec-17 15:07 43.084239 -78.988528 296 20240ft 230kts
25-Dec-17 15:08 43.125017 -79.056460 297 18964ft 228kts
25-Dec-17 15:09 43.164696 -79.122751 297 17869ft 225kts
25-Dec-17 15:10 43.205479 -79.191255 298 16294ft 234kts
25-Dec-17 15:11 43.246288 -79.259627 298 15052ft 228kts
25-Dec-17 15:12 43.289833 -79.332431 305 12791ft 255kts
25-Dec-17 15:13 43.346282 -79.388459 324 11237ft 240kts
25-Dec-17 15:14 43.403255 -79.427079 329 11039ft 224kts
25-Dec-17 15:15 43.461178 -79.460863 329 10998ft 229kts
25-Dec-17 15:16 43.519115 -79.497063 321 10999ft 224kts
25-Dec-17 15:17 43.569116 -79.550905 313 9947ft 235kts
25-Dec-17 15:18 43.632019 -79.551394 41 8856ft 285kts
25-Dec-17 15:19 43.673571 -79.455068 54 7797ft 290kts
25-Dec-17 15:20 43.720411 -79.364949 44 5930ft 286kts
25-Dec-17 15:21 43.767628 -79.293628 38 3934ft 228kts
25-Dec-17 15:22 43.809376 -79.233092 41 2477ft 190kts
25-Dec-17 15:23 43.834298 -79.243944 272 2485ft 111kts
25-Dec-17 15:24 43.834085 -79.290040 265 2468ft 123kts
25-Dec-17 15:25 43.830222 -79.337458 262 2468ft 124kts
25-Dec-17 15:26 43.824228 -79.384543 259 2468ft 124kts
25-Dec-17 15:27 43.815219 -79.433435 254 2070ft 145kts
25-Dec-17 15:28 43.798359 -79.481344 234 1991ft 139kts
25-Dec-17 15:29 43.770940 -79.523299 229 1969ft 147kts
25-Dec-17 15:30 43.743636 -79.562860 227 1982ft 135kts
25-Dec-17 15:31 43.716952 -79.600703 233 1346ft 139kts
25-Dec-17 15:32 43.694156 -79.635022 226 613ft 111kts
25-Dec-17 15:33 43.683845 -79.650754 246 569ft 0kts
25-Dec-17 15:34 43.683826 -79.650817 247 569ft 0kts
25-Dec-17 15:35 43.685440 -79.652384 13 573ft 11kts

Navigation Log

Ident Type
Flight plan parsing failed, navigation log unavailable